sensor_id;sensor_type;location;lat;lon;timestamp;temperature;humidity
17948;DHT22;9099;47.958;11.366;2022-11-20T00:01:04;6.20;99.90
17948;DHT22;9099;47.958;11.366;2022-11-20T00:03:31;6.10;99.90
17948;DHT22;9099;47.958;11.366;2022-11-20T00:06:00;6.10;99.90
17948;DHT22;9099;47.958;11.366;2022-11-20T00:08:26;6.20;99.90
17948;DHT22;9099;47.958;11.366;2022-11-20T00:10:55;6.20;99.90
17948;DHT22;9099;47.958;11.366;2022-11-20T00:13:22;6.10;99.90
17948;DHT22;9099;47.958;11.366;2022-11-20T00:15:50;6.10;99.90
17948;DHT22;9099;47.958;11.366;2022-11-20T00:18:22;6.10;99.90
17948;DHT22;9099;47.958;11.366;2022-11-20T00:20:49;6.10;99.90
17948;DHT22;9099;47.958;11.366;2022-11-20T00:23:16;6.10;99.90
17948;DHT22;9099;47.958;11.366;2022-11-20T00:25:43;6.10;99.90
17948;DHT22;9099;47.958;11.366;2022-11-20T00:28:11;6.20;99.90
17948;DHT22;9099;47.958;11.366;2022-11-20T00:30:38;6.10;99.90
17948;DHT22;9099;47.958;11.366;2022-11-20T00:33:05;6.20;99.90
17948;DHT22;9099;47.958;11.366;2022-11-20T00:35:31;6.20;99.90
17948;DHT22;9099;47.958;11.366;2022-11-20T00:37:58;6.20;99.90
17948;DHT22;9099;47.958;11.366;2022-11-20T00:40:25;6.30;99.90
17948;DHT22;9099;47.958;11.366;2022-11-20T00:42:52;6.30;99.90
17948;DHT22;9099;47.958;11.366;2022-11-20T00:45:20;6.40;99.90
17948;DHT22;9099;47.958;11.366;2022-11-20T00:47:47;6.40;99.90
17948;DHT22;9099;47.958;11.366;2022-11-20T00:50:14;6.30;99.90
17948;DHT22;9099;47.958;11.366;2022-11-20T00:52:41;6.40;99.90
17948;DHT22;9099;47.958;11.366;2022-11-20T00:55:08;6.30;99.90
17948;DHT22;9099;47.958;11.366;2022-11-20T00:57:34;6.30;99.90
17948;DHT22;9099;47.958;11.366;2022-11-20T01:00:01;6.30;99.90
17948;DHT22;9099;47.958;11.366;2022-11-20T01:02:30;6.30;99.90
17948;DHT22;9099;47.958;11.366;2022-11-20T01:04:56;6.40;99.90
17948;DHT22;9099;47.958;11.366;2022-11-20T01:07:23;6.40;99.90
17948;DHT22;9099;47.958;11.366;2022-11-20T01:09:50;6.40;99.90
17948;DHT22;9099;47.958;11.366;2022-11-20T01:12:17;6.40;99.90
17948;DHT22;9099;47.958;11.366;2022-11-20T01:14:44;6.40;99.90
17948;DHT22;9099;47.958;11.366;2022-11-20T01:17:10;6.40;99.90
17948;DHT22;9099;47.958;11.366;2022-11-20T01:19:39;6.40;99.90
17948;DHT22;9099;47.958;11.366;2022-11-20T01:22:05;6.40;99.90
17948;DHT22;9099;47.958;11.366;2022-11-20T01:24:32;6.40;99.90
17948;DHT22;9099;47.958;11.366;2022-11-20T01:26:59;6.40;99.90
17948;DHT22;9099;47.958;11.366;2022-11-20T01:29:26;6.50;99.90
17948;DHT22;9099;47.958;11.366;2022-11-20T01:31:53;6.50;99.90
17948;DHT22;9099;47.958;11.366;2022-11-20T01:34:21;6.50;99.90
17948;DHT22;9099;47.958;11.366;2022-11-20T01:36:50;6.50;99.90
17948;DHT22;9099;47.958;11.366;2022-11-20T01:39:19;6.40;99.90
17948;DHT22;9099;47.958;11.366;2022-11-20T01:41:48;6.40;99.90
17948;DHT22;9099;47.958;11.366;2022-11-20T01:44:57;6.40;99.90
17948;DHT22;9099;47.958;11.366;2022-11-20T01:47:29;6.40;99.90
17948;DHT22;9099;47.958;11.366;2022-11-20T01:50:00;6.40;99.90
17948;DHT22;9099;47.958;11.366;2022-11-20T01:52:32;6.30;99.90
17948;DHT22;9099;47.958;11.366;2022-11-20T01:55:04;6.40;99.90
17948;DHT22;9099;47.958;11.366;2022-11-20T01:57:33;6.40;99.90
17948;DHT22;9099;47.958;11.366;2022-11-20T02:00:04;6.30;99.90
17948;DHT22;9099;47.958;11.366;2022-11-20T02:02:32;6.30;99.90
17948;DHT22;9099;47.958;11.366;2022-11-20T02:05:04;6.40;99.90
17948;DHT22;9099;47.958;11.366;2022-11-20T02:07:37;6.30;99.90
17948;DHT22;9099;47.958;11.366;2022-11-20T02:10:04;6.30;99.90
17948;DHT22;9099;47.958;11.366;2022-11-20T02:12:32;6.20;99.90
17948;DHT22;9099;47.958;11.366;2022-11-20T02:15:17;6.20;99.90
17948;DHT22;9099;47.958;11.366;2022-11-20T02:17:43;6.20;99.90
17948;DHT22;9099;47.958;11.366;2022-11-20T02:20:11;6.10;99.90
17948;DHT22;9099;47.958;11.366;2022-11-20T02:22:48;6.10;99.90
17948;DHT22;9099;47.958;11.366;2022-11-20T02:25:17;6.10;99.90
17948;DHT22;9099;47.958;11.366;2022-11-20T02:27:45;6.10;99.90
17948;DHT22;9099;47.958;11.366;2022-11-20T02:30:12;6.00;99.90
17948;DHT22;9099;47.958;11.366;2022-11-20T02:32:39;6.00;99.90
17948;DHT22;9099;47.958;11.366;2022-11-20T02:35:08;6.00;99.90
17948;DHT22;9099;47.958;11.366;2022-11-20T02:37:38;6.00;99.90
17948;DHT22;9099;47.958;11.366;2022-11-20T02:40:07;6.00;99.90
17948;DHT22;9099;47.958;11.366;2022-11-20T02:42:36;6.00;99.90
17948;DHT22;9099;47.958;11.366;2022-11-20T02:45:03;6.00;99.90
17948;DHT22;9099;47.958;11.366;2022-11-20T02:47:31;6.00;99.90
17948;DHT22;9099;47.958;11.366;2022-11-20T02:49:58;6.00;99.90
17948;DHT22;9099;47.958;11.366;2022-11-20T02:52:25;6.00;99.90
17948;DHT22;9099;47.958;11.366;2022-11-20T02:54:52;6.00;99.90
17948;DHT22;9099;47.958;11.366;2022-11-20T02:57:19;6.00;99.90
17948;DHT22;9099;47.958;11.366;2022-11-20T02:59:47;6.00;99.90
17948;DHT22;9099;47.958;11.366;2022-11-20T03:02:14;6.00;99.90
17948;DHT22;9099;47.958;11.366;2022-11-20T03:04:42;6.00;99.90
17948;DHT22;9099;47.958;11.366;2022-11-20T03:07:09;5.90;99.90
17948;DHT22;9099;47.958;11.366;2022-11-20T03:09:36;6.00;99.90
17948;DHT22;9099;47.958;11.366;2022-11-20T03:12:03;6.00;99.90
17948;DHT22;9099;47.958;11.366;2022-11-20T03:14:30;6.00;99.90
17948;DHT22;9099;47.958;11.366;2022-11-20T03:16:58;5.90;99.90
17948;DHT22;9099;47.958;11.366;2022-11-20T03:19:25;6.00;99.90
17948;DHT22;9099;47.958;11.366;2022-11-20T03:21:52;5.90;99.90
17948;DHT22;9099;47.958;11.366;2022-11-20T03:24:18;5.90;99.90
17948;DHT22;9099;47.958;11.366;2022-11-20T03:26:45;6.00;99.90
17948;DHT22;9099;47.958;11.366;2022-11-20T03:29:12;6.00;99.90
17948;DHT22;9099;47.958;11.366;2022-11-20T03:31:40;6.00;99.90
17948;DHT22;9099;47.958;11.366;2022-11-20T03:34:09;6.00;99.90
17948;DHT22;9099;47.958;11.366;2022-11-20T03:36:38;6.00;99.90
17948;DHT22;9099;47.958;11.366;2022-11-20T03:39:05;6.00;99.90
17948;DHT22;9099;47.958;11.366;2022-11-20T03:41:36;6.00;99.90
17948;DHT22;9099;47.958;11.366;2022-11-20T03:44:05;6.10;99.90
17948;DHT22;9099;47.958;11.366;2022-11-20T03:46:32;6.10;99.90
17948;DHT22;9099;47.958;11.366;2022-11-20T03:49:02;6.10;99.90
17948;DHT22;9099;47.958;11.366;2022-11-20T03:51:32;6.10;99.90
17948;DHT22;9099;47.958;11.366;2022-11-20T03:54:00;6.20;99.90
17948;DHT22;9099;47.958;11.366;2022-11-20T03:56:29;6.20;99.90
17948;DHT22;9099;47.958;11.366;2022-11-20T03:58:57;6.20;99.90
17948;DHT22;9099;47.958;11.366;2022-11-20T04:01:26;6.30;99.90
17948;DHT22;9099;47.958;11.366;2022-11-20T04:03:55;6.40;99.90
17948;DHT22;9099;47.958;11.366;2022-11-20T04:06:24;6.40;99.90
17948;DHT22;9099;47.958;11.366;2022-11-20T04:08:54;6.40;99.90
17948;DHT22;9099;47.958;11.366;2022-11-20T04:11:23;6.30;99.90
17948;DHT22;9099;47.958;11.366;2022-11-20T04:13:51;6.30;99.90
17948;DHT22;9099;47.958;11.366;2022-11-20T04:16:19;6.30;99.90
17948;DHT22;9099;47.958;11.366;2022-11-20T04:18:46;6.30;99.90
17948;DHT22;9099;47.958;11.366;2022-11-20T04:21:13;6.30;99.90
17948;DHT22;9099;47.958;11.366;2022-11-20T04:23:40;6.30;99.90
17948;DHT22;9099;47.958;11.366;2022-11-20T04:26:09;6.30;99.90
17948;DHT22;9099;47.958;11.366;2022-11-20T04:28:37;6.40;99.90
17948;DHT22;9099;47.958;11.366;2022-11-20T04:31:06;6.40;99.90
17948;DHT22;9099;47.958;11.366;2022-11-20T04:33:33;6.40;99.90
17948;DHT22;9099;47.958;11.366;2022-11-20T04:36:02;6.40;99.90
17948;DHT22;9099;47.958;11.366;2022-11-20T04:38:29;6.40;99.90
17948;DHT22;9099;47.958;11.366;2022-11-20T04:40:57;6.40;99.90
17948;DHT22;9099;47.958;11.366;2022-11-20T04:43:26;6.30;99.90
17948;DHT22;9099;47.958;11.366;2022-11-20T04:45:54;6.30;99.90
17948;DHT22;9099;47.958;11.366;2022-11-20T04:48:22;6.30;99.90
17948;DHT22;9099;47.958;11.366;2022-11-20T04:50:49;6.30;99.90
17948;DHT22;9099;47.958;11.366;2022-11-20T04:53:16;6.20;99.90
17948;DHT22;9099;47.958;11.366;2022-11-20T04:55:43;6.20;99.90
17948;DHT22;9099;47.958;11.366;2022-11-20T04:58:10;6.30;99.90
17948;DHT22;9099;47.958;11.366;2022-11-20T05:00:38;6.40;99.90
17948;DHT22;9099;47.958;11.366;2022-11-20T05:03:05;6.40;99.90
17948;DHT22;9099;47.958;11.366;2022-11-20T05:05:33;6.40;99.90
17948;DHT22;9099;47.958;11.366;2022-11-20T05:08:00;6.40;99.90
17948;DHT22;9099;47.958;11.366;2022-11-20T05:10:27;6.30;99.90
17948;DHT22;9099;47.958;11.366;2022-11-20T05:12:54;6.30;99.90
17948;DHT22;9099;47.958;11.366;2022-11-20T05:15:21;6.30;99.90
17948;DHT22;9099;47.958;11.366;2022-11-20T05:17:50;6.30;99.90
17948;DHT22;9099;47.958;11.366;2022-11-20T05:20:17;6.40;99.90
17948;DHT22;9099;47.958;11.366;2022-11-20T05:22:44;6.30;99.90
17948;DHT22;9099;47.958;11.366;2022-11-20T05:25:11;6.30;99.90
17948;DHT22;9099;47.958;11.366;2022-11-20T05:27:38;6.30;99.90
17948;DHT22;9099;47.958;11.366;2022-11-20T05:30:06;6.30;99.90
17948;DHT22;9099;47.958;11.366;2022-11-20T05:32:33;6.20;99.90
17948;DHT22;9099;47.958;11.366;2022-11-20T05:35:02;6.20;99.90
17948;DHT22;9099;47.958;11.366;2022-11-20T05:37:29;6.20;99.90
17948;DHT22;9099;47.958;11.366;2022-11-20T05:39:55;6.20;99.90
17948;DHT22;9099;47.958;11.366;2022-11-20T05:42:22;6.20;99.90
17948;DHT22;9099;47.958;11.366;2022-11-20T05:44:58;6.20;99.90
17948;DHT22;9099;47.958;11.366;2022-11-20T05:47:25;6.10;99.90
17948;DHT22;9099;47.958;11.366;2022-11-20T05:49:52;6.10;99.90
17948;DHT22;9099;47.958;11.366;2022-11-20T05:52:21;6.20;99.90
17948;DHT22;9099;47.958;11.366;2022-11-20T05:54:47;6.20;99.90
17948;DHT22;9099;47.958;11.366;2022-11-20T05:57:14;6.10;99.90
17948;DHT22;9099;47.958;11.366;2022-11-20T05:59:41;6.10;99.90
17948;DHT22;9099;47.958;11.366;2022-11-20T06:02:08;6.00;99.90
17948;DHT22;9099;47.958;11.366;2022-11-20T06:04:35;6.00;99.90
17948;DHT22;9099;47.958;11.366;2022-11-20T06:07:02;6.00;99.90
17948;DHT22;9099;47.958;11.366;2022-11-20T06:09:30;6.00;99.90
17948;DHT22;9099;47.958;11.366;2022-11-20T06:11:57;6.00;99.90
17948;DHT22;9099;47.958;11.366;2022-11-20T06:14:24;6.00;99.90
17948;DHT22;9099;47.958;11.366;2022-11-20T06:16:51;5.90;99.90
17948;DHT22;9099;47.958;11.366;2022-11-20T06:19:17;6.00;99.90
17948;DHT22;9099;47.958;11.366;2022-11-20T06:21:44;6.00;99.90
17948;DHT22;9099;47.958;11.366;2022-11-20T06:24:11;6.00;99.90
17948;DHT22;9099;47.958;11.366;2022-11-20T06:26:40;5.90;99.90
17948;DHT22;9099;47.958;11.366;2022-11-20T06:29:06;5.90;99.90
17948;DHT22;9099;47.958;11.366;2022-11-20T06:31:33;5.80;99.90
17948;DHT22;9099;47.958;11.366;2022-11-20T06:34:03;5.70;99.90
17948;DHT22;9099;47.958;11.366;2022-11-20T06:36:30;5.70;99.90
17948;DHT22;9099;47.958;11.366;2022-11-20T06:38:57;5.70;99.90
17948;DHT22;9099;47.958;11.366;2022-11-20T06:41:24;5.60;99.90
17948;DHT22;9099;47.958;11.366;2022-11-20T06:43:53;5.60;99.90
17948;DHT22;9099;47.958;11.366;2022-11-20T06:46:20;5.60;99.90
17948;DHT22;9099;47.958;11.366;2022-11-20T06:48:48;5.60;99.90
17948;DHT22;9099;47.958;11.366;2022-11-20T06:51:15;5.60;99.90
17948;DHT22;9099;47.958;11.366;2022-11-20T06:53:42;5.70;99.90
17948;DHT22;9099;47.958;11.366;2022-11-20T06:56:09;5.70;99.90
17948;DHT22;9099;47.958;11.366;2022-11-20T06:58:36;5.80;99.90
17948;DHT22;9099;47.958;11.366;2022-11-20T07:01:06;5.80;99.90
17948;DHT22;9099;47.958;11.366;2022-11-20T07:03:33;5.80;99.90
17948;DHT22;9099;47.958;11.366;2022-11-20T07:06:00;5.90;99.90
17948;DHT22;9099;47.958;11.366;2022-11-20T07:08:28;5.90;99.90
17948;DHT22;9099;47.958;11.366;2022-11-20T07:10:57;6.10;99.90
17948;DHT22;9099;47.958;11.366;2022-11-20T07:13:25;6.20;99.90
17948;DHT22;9099;47.958;11.366;2022-11-20T07:15:52;6.40;99.90
17948;DHT22;9099;47.958;11.366;2022-11-20T07:18:20;6.40;99.90
17948;DHT22;9099;47.958;11.366;2022-11-20T07:20:47;6.40;99.90
17948;DHT22;9099;47.958;11.366;2022-11-20T07:23:14;6.50;99.90
17948;DHT22;9099;47.958;11.366;2022-11-20T07:25:41;6.60;99.90
17948;DHT22;9099;47.958;11.366;2022-11-20T07:28:07;6.70;99.90
17948;DHT22;9099;47.958;11.366;2022-11-20T07:30:36;6.70;99.90
17948;DHT22;9099;47.958;11.366;2022-11-20T07:33:03;6.60;99.90
17948;DHT22;9099;47.958;11.366;2022-11-20T07:35:31;6.60;99.90
17948;DHT22;9099;47.958;11.366;2022-11-20T07:37:58;6.50;99.90
17948;DHT22;9099;47.958;11.366;2022-11-20T07:40:25;6.40;99.90
17948;DHT22;9099;47.958;11.366;2022-11-20T07:42:52;6.50;99.90
17948;DHT22;9099;47.958;11.366;2022-11-20T07:45:21;6.50;99.90
17948;DHT22;9099;47.958;11.366;2022-11-20T07:47:49;6.50;99.90
17948;DHT22;9099;47.958;11.366;2022-11-20T07:50:16;6.50;99.90
17948;DHT22;9099;47.958;11.366;2022-11-20T07:52:45;6.50;99.90
17948;DHT22;9099;47.958;11.366;2022-11-20T07:55:12;6.40;99.90
17948;DHT22;9099;47.958;11.366;2022-11-20T07:57:39;6.40;99.90
17948;DHT22;9099;47.958;11.366;2022-11-20T08:00:08;6.40;99.90
17948;DHT22;9099;47.958;11.366;2022-11-20T08:02:37;6.40;99.90
17948;DHT22;9099;47.958;11.366;2022-11-20T08:05:05;6.40;99.90
17948;DHT22;9099;47.958;11.366;2022-11-20T08:07:35;6.40;99.90
17948;DHT22;9099;47.958;11.366;2022-11-20T08:10:04;6.50;99.90
17948;DHT22;9099;47.958;11.366;2022-11-20T08:12:31;6.50;99.90
17948;DHT22;9099;47.958;11.366;2022-11-20T08:15:16;6.60;99.90
17948;DHT22;9099;47.958;11.366;2022-11-20T08:17:43;6.60;99.90
17948;DHT22;9099;47.958;11.366;2022-11-20T08:20:10;6.70;99.90
17948;DHT22;9099;47.958;11.366;2022-11-20T08:22:37;6.70;99.90
17948;DHT22;9099;47.958;11.366;2022-11-20T08:25:06;6.60;99.90
17948;DHT22;9099;47.958;11.366;2022-11-20T08:27:33;6.60;99.90
17948;DHT22;9099;47.958;11.366;2022-11-20T08:30:00;6.60;99.90
17948;DHT22;9099;47.958;11.366;2022-11-20T08:32:26;6.70;99.90
17948;DHT22;9099;47.958;11.366;2022-11-20T08:34:53;6.70;99.90
17948;DHT22;9099;47.958;11.366;2022-11-20T08:37:20;6.70;99.90
17948;DHT22;9099;47.958;11.366;2022-11-20T08:39:47;6.80;99.90
17948;DHT22;9099;47.958;11.366;2022-11-20T08:42:15;6.90;99.90
17948;DHT22;9099;47.958;11.366;2022-11-20T08:44:42;6.90;99.90
17948;DHT22;9099;47.958;11.366;2022-11-20T08:47:09;6.90;99.90
17948;DHT22;9099;47.958;11.366;2022-11-20T08:49:35;7.00;99.90
17948;DHT22;9099;47.958;11.366;2022-11-20T08:52:02;7.00;99.90
17948;DHT22;9099;47.958;11.366;2022-11-20T08:54:29;7.10;99.90
17948;DHT22;9099;47.958;11.366;2022-11-20T08:56:56;7.20;99.90
17948;DHT22;9099;47.958;11.366;2022-11-20T08:59:24;7.20;99.90
17948;DHT22;9099;47.958;11.366;2022-11-20T09:01:51;7.10;99.90
17948;DHT22;9099;47.958;11.366;2022-11-20T09:04:18;7.10;99.90
17948;DHT22;9099;47.958;11.366;2022-11-20T09:06:45;7.20;99.90
17948;DHT22;9099;47.958;11.366;2022-11-20T09:09:16;7.20;99.90
17948;DHT22;9099;47.958;11.366;2022-11-20T09:11:44;7.20;99.90
17948;DHT22;9099;47.958;11.366;2022-11-20T09:14:10;7.30;99.90
17948;DHT22;9099;47.958;11.366;2022-11-20T09:16:39;7.40;99.90
17948;DHT22;9099;47.958;11.366;2022-11-20T09:19:05;7.40;99.90
17948;DHT22;9099;47.958;11.366;2022-11-20T09:21:32;7.50;99.90
17948;DHT22;9099;47.958;11.366;2022-11-20T09:23:59;7.50;99.90
17948;DHT22;9099;47.958;11.366;2022-11-20T09:26:26;7.60;99.90
17948;DHT22;9099;47.958;11.366;2022-11-20T09:28:53;7.60;99.90
17948;DHT22;9099;47.958;11.366;2022-11-20T09:31:23;7.50;99.90
17948;DHT22;9099;47.958;11.366;2022-11-20T09:33:52;7.50;99.90
17948;DHT22;9099;47.958;11.366;2022-11-20T09:36:19;7.50;99.90
17948;DHT22;9099;47.958;11.366;2022-11-20T09:38:46;7.50;99.90
17948;DHT22;9099;47.958;11.366;2022-11-20T09:41:36;7.70;99.90
17948;DHT22;9099;47.958;11.366;2022-11-20T09:44:13;7.80;99.90
17948;DHT22;9099;47.958;11.366;2022-11-20T09:46:48;8.00;99.90
17948;DHT22;9099;47.958;11.366;2022-11-20T09:49:26;8.40;99.90
17948;DHT22;9099;47.958;11.366;2022-11-20T09:51:58;9.70;99.90
17948;DHT22;9099;47.958;11.366;2022-11-20T09:54:29;10.90;99.90
17948;DHT22;9099;47.958;11.366;2022-11-20T09:57:00;11.10;99.90
17948;DHT22;9099;47.958;11.366;2022-11-20T09:59:35;11.30;99.90
17948;DHT22;9099;47.958;11.366;2022-11-20T10:02:18;11.00;99.90
17948;DHT22;9099;47.958;11.366;2022-11-20T10:04:55;11.50;99.90
17948;DHT22;9099;47.958;11.366;2022-11-20T10:07:29;12.70;99.90
17948;DHT22;9099;47.958;11.366;2022-11-20T10:09:56;13.60;99.90
17948;DHT22;9099;47.958;11.366;2022-11-20T10:12:31;13.80;99.90
17948;DHT22;9099;47.958;11.366;2022-11-20T10:15:11;13.50;99.90
17948;DHT22;9099;47.958;11.366;2022-11-20T10:17:52;13.80;99.90
17948;DHT22;9099;47.958;11.366;2022-11-20T10:20:28;13.60;99.90
17948;DHT22;9099;47.958;11.366;2022-11-20T10:23:10;13.50;99.90
17948;DHT22;9099;47.958;11.366;2022-11-20T10:25:46;13.50;99.90
17948;DHT22;9099;47.958;11.366;2022-11-20T10:28:23;13.50;99.90
17948;DHT22;9099;47.958;11.366;2022-11-20T10:30:59;13.00;99.90
17948;DHT22;9099;47.958;11.366;2022-11-20T10:33:28;12.30;99.90
17948;DHT22;9099;47.958;11.366;2022-11-20T10:36:05;11.80;99.90
17948;DHT22;9099;47.958;11.366;2022-11-20T10:38:37;11.70;99.90
17948;DHT22;9099;47.958;11.366;2022-11-20T10:41:06;11.40;99.90
17948;DHT22;9099;47.958;11.366;2022-11-20T10:43:56;11.50;99.90
17948;DHT22;9099;47.958;11.366;2022-11-20T10:46:26;12.70;99.90
17948;DHT22;9099;47.958;11.366;2022-11-20T10:48:57;13.20;99.90
17948;DHT22;9099;47.958;11.366;2022-11-20T10:51:33;13.60;99.90
17948;DHT22;9099;47.958;11.366;2022-11-20T10:54:16;13.20;99.90
17948;DHT22;9099;47.958;11.366;2022-11-20T10:56:47;12.60;99.90
17948;DHT22;9099;47.958;11.366;2022-11-20T10:59:41;12.20;99.90
17948;DHT22;9099;47.958;11.366;2022-11-20T11:02:20;11.60;99.90
17948;DHT22;9099;47.958;11.366;2022-11-20T11:04:48;11.10;99.90
17948;DHT22;9099;47.958;11.366;2022-11-20T11:07:20;10.60;99.90
17948;DHT22;9099;47.958;11.366;2022-11-20T11:09:50;10.20;99.90
17948;DHT22;9099;47.958;11.366;2022-11-20T11:12:17;10.00;99.90
17948;DHT22;9099;47.958;11.366;2022-11-20T11:14:47;9.80;99.90
17948;DHT22;9099;47.958;11.366;2022-11-20T11:17:23;9.50;99.90
17948;DHT22;9099;47.958;11.366;2022-11-20T11:20:04;9.40;99.90
17948;DHT22;9099;47.958;11.366;2022-11-20T11:22:34;9.30;99.90
17948;DHT22;9099;47.958;11.366;2022-11-20T11:25:20;9.20;99.90
17948;DHT22;9099;47.958;11.366;2022-11-20T11:27:48;9.30;99.90
17948;DHT22;9099;47.958;11.366;2022-11-20T11:30:18;9.40;99.90
17948;DHT22;9099;47.958;11.366;2022-11-20T11:32:45;9.40;99.90
17948;DHT22;9099;47.958;11.366;2022-11-20T11:35:24;9.40;99.90
17948;DHT22;9099;47.958;11.366;2022-11-20T11:37:54;9.40;99.90
17948;DHT22;9099;47.958;11.366;2022-11-20T11:40:29;9.50;99.90
17948;DHT22;9099;47.958;11.366;2022-11-20T11:42:59;9.50;99.90
17948;DHT22;9099;47.958;11.366;2022-11-20T11:45:28;9.50;99.90
17948;DHT22;9099;47.958;11.366;2022-11-20T11:47:55;9.40;99.90
17948;DHT22;9099;47.958;11.366;2022-11-20T11:50:24;9.40;99.90
17948;DHT22;9099;47.958;11.366;2022-11-20T11:53:08;9.40;99.90
17948;DHT22;9099;47.958;11.366;2022-11-20T11:55:38;9.30;99.90
17948;DHT22;9099;47.958;11.366;2022-11-20T11:58:17;9.30;99.90
17948;DHT22;9099;47.958;11.366;2022-11-20T12:00:54;9.40;99.90
17948;DHT22;9099;47.958;11.366;2022-11-20T12:03:25;9.50;99.90
17948;DHT22;9099;47.958;11.366;2022-11-20T12:05:57;9.50;99.90
17948;DHT22;9099;47.958;11.366;2022-11-20T12:08:31;9.70;99.90
17948;DHT22;9099;47.958;11.366;2022-11-20T12:11:04;9.70;99.90
17948;DHT22;9099;47.958;11.366;2022-11-20T12:13:41;9.50;99.90
17948;DHT22;9099;47.958;11.366;2022-11-20T12:16:12;9.40;99.90
17948;DHT22;9099;47.958;11.366;2022-11-20T12:18:40;9.40;99.90
17948;DHT22;9099;47.958;11.366;2022-11-20T12:21:17;9.30;99.90
17948;DHT22;9099;47.958;11.366;2022-11-20T12:23:57;9.20;99.90
17948;DHT22;9099;47.958;11.366;2022-11-20T12:26:37;9.10;99.90
17948;DHT22;9099;47.958;11.366;2022-11-20T12:29:12;9.10;99.90
17948;DHT22;9099;47.958;11.366;2022-11-20T12:31:52;9.00;99.90
17948;DHT22;9099;47.958;11.366;2022-11-20T12:34:44;9.00;99.90
17948;DHT22;9099;47.958;11.366;2022-11-20T12:37:23;8.90;99.90
17948;DHT22;9099;47.958;11.366;2022-11-20T12:39:58;8.90;99.90
17948;DHT22;9099;47.958;11.366;2022-11-20T12:42:44;8.80;99.90
17948;DHT22;9099;47.958;11.366;2022-11-20T12:45:56;8.80;99.90
17948;DHT22;9099;47.958;11.366;2022-11-20T12:48:41;8.70;99.90
17948;DHT22;9099;47.958;11.366;2022-11-20T12:51:39;8.70;99.90
17948;DHT22;9099;47.958;11.366;2022-11-20T12:54:31;8.50;99.90
17948;DHT22;9099;47.958;11.366;2022-11-20T12:57:08;8.50;99.90
17948;DHT22;9099;47.958;11.366;2022-11-20T12:59:49;8.50;99.90
17948;DHT22;9099;47.958;11.366;2022-11-20T13:02:25;8.40;99.90
17948;DHT22;9099;47.958;11.366;2022-11-20T13:05:05;8.40;99.90
17948;DHT22;9099;47.958;11.366;2022-11-20T13:07:35;8.40;99.90
17948;DHT22;9099;47.958;11.366;2022-11-20T13:10:04;8.30;99.90
17948;DHT22;9099;47.958;11.366;2022-11-20T13:12:39;8.30;99.90
17948;DHT22;9099;47.958;11.366;2022-11-20T13:15:14;8.30;99.90
17948;DHT22;9099;47.958;11.366;2022-11-20T13:17:48;8.30;99.90
17948;DHT22;9099;47.958;11.366;2022-11-20T13:20:18;8.40;99.90
17948;DHT22;9099;47.958;11.366;2022-11-20T13:22:47;8.30;99.90
17948;DHT22;9099;47.958;11.366;2022-11-20T13:25:24;8.20;99.90
17948;DHT22;9099;47.958;11.366;2022-11-20T13:27:52;8.10;99.90
17948;DHT22;9099;47.958;11.366;2022-11-20T13:30:21;8.10;99.90
17948;DHT22;9099;47.958;11.366;2022-11-20T13:32:51;8.20;99.90
17948;DHT22;9099;47.958;11.366;2022-11-20T13:35:30;8.20;99.90
17948;DHT22;9099;47.958;11.366;2022-11-20T13:38:03;8.10;99.90
17948;DHT22;9099;47.958;11.366;2022-11-20T13:40:30;8.00;99.90
17948;DHT22;9099;47.958;11.366;2022-11-20T13:43:08;8.10;99.90
17948;DHT22;9099;47.958;11.366;2022-11-20T13:45:38;8.10;99.90
17948;DHT22;9099;47.958;11.366;2022-11-20T13:48:19;8.20;99.90
17948;DHT22;9099;47.958;11.366;2022-11-20T13:50:58;8.20;99.90
17948;DHT22;9099;47.958;11.366;2022-11-20T13:53:36;8.20;99.90
17948;DHT22;9099;47.958;11.366;2022-11-20T13:56:14;8.20;99.90
17948;DHT22;9099;47.958;11.366;2022-11-20T13:58:50;8.20;99.90
17948;DHT22;9099;47.958;11.366;2022-11-20T14:01:20;8.20;99.90
17948;DHT22;9099;47.958;11.366;2022-11-20T14:03:48;8.10;99.90
17948;DHT22;9099;47.958;11.366;2022-11-20T14:06:24;8.10;99.90
17948;DHT22;9099;47.958;11.366;2022-11-20T14:08:53;8.10;99.90
17948;DHT22;9099;47.958;11.366;2022-11-20T14:11:21;8.00;99.90
17948;DHT22;9099;47.958;11.366;2022-11-20T14:13:59;8.00;99.90
17948;DHT22;9099;47.958;11.366;2022-11-20T14:16:28;8.00;99.90
17948;DHT22;9099;47.958;11.366;2022-11-20T14:18:56;8.10;99.90
17948;DHT22;9099;47.958;11.366;2022-11-20T14:21:25;8.00;99.90
17948;DHT22;9099;47.958;11.366;2022-11-20T14:23:53;8.00;99.90
17948;DHT22;9099;47.958;11.366;2022-11-20T14:26:20;7.90;99.90
17948;DHT22;9099;47.958;11.366;2022-11-20T14:28:49;7.90;99.90
17948;DHT22;9099;47.958;11.366;2022-11-20T14:31:23;7.90;99.90
17948;DHT22;9099;47.958;11.366;2022-11-20T14:33:51;7.90;99.90
17948;DHT22;9099;47.958;11.366;2022-11-20T14:36:21;7.80;99.90
17948;DHT22;9099;47.958;11.366;2022-11-20T14:38:49;7.60;99.90
17948;DHT22;9099;47.958;11.366;2022-11-20T14:41:18;7.60;99.90
17948;DHT22;9099;47.958;11.366;2022-11-20T14:43:47;7.50;99.90
17948;DHT22;9099;47.958;11.366;2022-11-20T14:46:14;7.50;99.90
17948;DHT22;9099;47.958;11.366;2022-11-20T14:48:45;7.60;99.90
17948;DHT22;9099;47.958;11.366;2022-11-20T14:51:25;7.50;99.90
17948;DHT22;9099;47.958;11.366;2022-11-20T14:53:53;7.50;99.90
17948;DHT22;9099;47.958;11.366;2022-11-20T14:56:22;7.50;99.90
17948;DHT22;9099;47.958;11.366;2022-11-20T14:58:55;7.40;99.90
17948;DHT22;9099;47.958;11.366;2022-11-20T15:01:26;7.50;99.90
17948;DHT22;9099;47.958;11.366;2022-11-20T15:04:00;7.50;99.90
17948;DHT22;9099;47.958;11.366;2022-11-20T15:06:28;7.60;99.90
17948;DHT22;9099;47.958;11.366;2022-11-20T15:08:56;7.60;99.90
17948;DHT22;9099;47.958;11.366;2022-11-20T15:11:28;7.60;99.90
17948;DHT22;9099;47.958;11.366;2022-11-20T15:13:57;7.50;99.90
17948;DHT22;9099;47.958;11.366;2022-11-20T15:16:24;7.60;99.90
17948;DHT22;9099;47.958;11.366;2022-11-20T15:18:53;7.50;99.90
17948;DHT22;9099;47.958;11.366;2022-11-20T15:21:21;7.60;99.90
17948;DHT22;9099;47.958;11.366;2022-11-20T15:23:48;7.50;99.90
17948;DHT22;9099;47.958;11.366;2022-11-20T15:26:24;7.50;99.90
17948;DHT22;9099;47.958;11.366;2022-11-20T15:28:52;7.50;99.90
17948;DHT22;9099;47.958;11.366;2022-11-20T15:31:21;7.50;99.90
17948;DHT22;9099;47.958;11.366;2022-11-20T15:33:48;7.50;99.90
17948;DHT22;9099;47.958;11.366;2022-11-20T15:36:15;7.40;99.90
17948;DHT22;9099;47.958;11.366;2022-11-20T15:38:44;7.40;99.90
17948;DHT22;9099;47.958;11.366;2022-11-20T15:41:11;7.40;99.90
17948;DHT22;9099;47.958;11.366;2022-11-20T15:43:37;7.40;99.90
17948;DHT22;9099;47.958;11.366;2022-11-20T15:46:08;7.40;99.90
17948;DHT22;9099;47.958;11.366;2022-11-20T15:48:38;7.40;99.90
17948;DHT22;9099;47.958;11.366;2022-11-20T15:51:12;7.40;99.90
17948;DHT22;9099;47.958;11.366;2022-11-20T15:53:43;7.40;99.90
17948;DHT22;9099;47.958;11.366;2022-11-20T15:56:12;7.40;99.90
17948;DHT22;9099;47.958;11.366;2022-11-20T15:58:39;7.30;99.90
17948;DHT22;9099;47.958;11.366;2022-11-20T16:01:10;7.30;99.90
17948;DHT22;9099;47.958;11.366;2022-11-20T16:03:37;7.20;99.90